createdAt,value
2018-06-30T04:51:14.709Z,10.20
2018-06-30T04:52:20.629Z,9.73
2018-06-30T04:53:26.575Z,9.87
2018-06-30T04:54:35.278Z,10.30
2018-06-30T04:55:41.469Z,9.10
2018-06-30T04:56:48.595Z,8.80
2018-06-30T04:57:54.743Z,9.30
2018-06-30T04:59:00.845Z,9.63
2018-06-30T05:00:07.638Z,8.30
2018-06-30T05:01:14.613Z,8.20
2018-06-30T05:02:21.024Z,7.10
2018-06-30T05:03:27.883Z,9.30
2018-06-30T05:04:34.163Z,9.23
2018-06-30T05:05:40.679Z,9.27
2018-06-30T05:06:46.900Z,9.53
2018-06-30T05:07:53.755Z,9.20
2018-06-30T05:09:00.814Z,8.80
2018-06-30T05:10:07.474Z,8.97
2018-06-30T05:11:13.566Z,8.67
2018-06-30T05:12:19.874Z,9.13
2018-06-30T05:13:27.539Z,8.43
2018-06-30T05:14:35.235Z,8.30
2018-06-30T05:15:41.325Z,8.10
2018-06-30T05:16:48.207Z,6.73
2018-06-30T05:17:55.969Z,7.43
2018-06-30T05:19:04.711Z,7.90
2018-06-30T05:20:12.257Z,7.13
2018-06-30T05:21:18.453Z,6.77
2018-06-30T05:22:25.336Z,6.90
2018-06-30T05:23:31.254Z,7.10
2018-06-30T05:24:37.347Z,6.77
2018-06-30T05:25:43.383Z,7.67
2018-06-30T05:26:49.557Z,7.43
2018-06-30T05:27:56.624Z,6.63
2018-06-30T05:29:03.481Z,7.40
2018-06-30T05:30:10.287Z,7.00
2018-06-30T05:31:16.367Z,6.40
2018-06-30T05:32:22.555Z,7.30
2018-06-30T05:33:29.512Z,6.70
2018-06-30T05:34:37.065Z,6.13
2018-06-30T05:35:43.185Z,6.33
2018-06-30T05:36:50.049Z,7.37
2018-06-30T05:37:55.953Z,6.50
2018-06-30T05:39:02.107Z,6.50
2018-06-30T05:40:08.903Z,7.10
2018-06-30T05:41:15.969Z,5.43
2018-06-30T05:42:23.713Z,6.00
2018-06-30T05:43:29.854Z,6.20
2018-06-30T05:44:41.060Z,6.13
2018-06-30T05:45:49.274Z,6.40
2018-06-30T05:46:56.507Z,5.53
2018-06-30T05:48:02.583Z,6.17
2018-06-30T05:49:08.712Z,6.07
2018-06-30T05:50:14.778Z,6.43
2018-06-30T05:51:24.694Z,5.93
2018-06-30T05:52:31.512Z,6.87
2018-06-30T05:53:38.282Z,5.93
2018-06-30T05:54:44.530Z,6.07
2018-06-30T05:55:50.702Z,6.63
2018-06-30T05:56:58.754Z,6.17
2018-06-30T05:58:04.795Z,5.80
2018-06-30T05:59:12.942Z,6.00
2018-06-30T06:00:19.024Z,6.17
2018-06-30T06:01:25.297Z,6.97
2018-06-30T06:02:31.500Z,5.50
2018-06-30T06:03:39.182Z,6.03
2018-06-30T06:04:45.352Z,5.93
2018-06-30T06:05:52.113Z,6.50
2018-06-30T06:07:00.574Z,6.77
2018-06-30T06:08:08.022Z,6.67
2018-06-30T06:09:14.355Z,6.40
2018-06-30T06:10:21.869Z,6.10
2018-06-30T06:11:29.013Z,7.63
2018-06-30T06:12:34.969Z,6.60
2018-06-30T06:13:41.019Z,6.07
2018-06-30T06:14:46.953Z,6.67
2018-06-30T06:15:54.061Z,6.60
2018-06-30T06:17:02.666Z,7.03
2018-06-30T06:18:09.665Z,6.60
2018-06-30T06:19:15.675Z,8.10
2018-06-30T06:20:22.483Z,7.53
2018-06-30T06:21:31.726Z,7.70
2018-06-30T06:22:37.895Z,6.20
2018-06-30T06:23:43.888Z,6.53
2018-06-30T06:24:50.125Z,6.97
2018-06-30T06:26:00.914Z,6.30
2018-06-30T06:27:08.651Z,7.20
2018-06-30T06:28:16.361Z,6.93
2018-06-30T06:29:22.515Z,6.83
2018-06-30T06:30:31.004Z,6.83
2018-06-30T06:31:39.683Z,6.57
2018-06-30T06:32:46.113Z,6.60
2018-06-30T06:33:53.062Z,5.93
2018-06-30T06:34:59.907Z,6.87
2018-06-30T06:36:06.588Z,6.30
2018-06-30T06:37:13.300Z,6.40
2018-06-30T06:38:20.274Z,7.30
2018-06-30T06:39:26.732Z,7.63
2018-06-30T06:40:34.718Z,6.73
2018-06-30T06:41:43.613Z,7.67
2018-06-30T06:42:50.932Z,7.50
2018-06-30T06:44:04.664Z,6.70
2018-06-30T06:45:10.742Z,7.00
2018-06-30T06:46:17.500Z,6.57
2018-06-30T06:47:23.624Z,6.87
2018-06-30T06:48:29.399Z,6.70
2018-06-30T06:49:39.348Z,7.00
2018-06-30T06:50:45.491Z,6.77
2018-06-30T06:51:51.527Z,6.80
2018-06-30T06:52:57.642Z,6.80
2018-06-30T06:54:03.739Z,7.80
2018-06-30T06:55:09.692Z,6.40
2018-06-30T06:56:16.789Z,5.87
2018-06-30T06:57:23.363Z,6.37
2018-06-30T06:58:29.267Z,6.03
2018-06-30T06:59:35.289Z,5.53
2018-06-30T07:00:42.189Z,6.40
2018-06-30T07:01:48.148Z,5.63
2018-06-30T07:02:54.261Z,6.63
2018-06-30T07:04:01.130Z,6.03
2018-06-30T07:05:07.585Z,5.27
2018-06-30T07:06:13.732Z,5.93
2018-06-30T07:13:39.136Z,5.37
2018-06-30T07:14:48.280Z,5.57
2018-06-30T07:15:54.258Z,5.50
2018-06-30T07:17:02.322Z,5.23
2018-06-30T07:18:09.414Z,4.60
2018-06-30T07:19:15.714Z,6.07
2018-06-30T07:20:21.806Z,5.70
2018-06-30T07:21:27.916Z,4.87
2018-06-30T07:22:34.754Z,5.80
2018-06-30T07:23:43.202Z,6.00
2018-06-30T07:24:49.394Z,5.40
2018-06-30T07:25:56.231Z,5.40
2018-06-30T07:27:11.340Z,4.40
2018-06-30T07:28:19.023Z,4.60
2018-06-30T07:29:25.044Z,5.37
2018-06-30T07:30:31.103Z,5.23
2018-06-30T07:31:39.062Z,4.70
2018-06-30T07:40:42.145Z,4.30
2018-06-30T07:41:49.457Z,4.23
2018-06-30T07:42:55.620Z,5.00
2018-06-30T07:44:01.984Z,5.00
2018-06-30T07:45:08.182Z,4.80
2018-06-30T07:46:14.663Z,4.70
2018-06-30T07:47:21.083Z,4.23
2018-06-30T07:48:27.420Z,4.80
2018-06-30T07:49:34.418Z,4.83
2018-06-30T07:50:40.293Z,4.43
2018-06-30T07:51:46.817Z,4.20
2018-06-30T07:52:56.759Z,4.30
2018-06-30T07:54:03.431Z,4.90
2018-06-30T07:55:16.976Z,4.27
2018-06-30T07:56:23.309Z,4.20
2018-06-30T07:57:32.141Z,4.30
2018-06-30T07:58:39.012Z,4.20
2018-06-30T07:59:47.314Z,4.70
2018-06-30T08:00:53.109Z,4.43
2018-06-30T08:01:59.022Z,4.40
2018-06-30T08:03:05.226Z,4.00
2018-06-30T08:04:13.891Z,5.03
2018-06-30T08:05:25.441Z,4.40
2018-06-30T08:06:31.438Z,4.27
2018-06-30T08:07:39.357Z,4.20
2018-06-30T08:08:45.416Z,4.27
2018-06-30T08:09:54.076Z,3.70
2018-06-30T08:11:01.355Z,4.10
2018-06-30T08:12:07.436Z,3.87
2018-06-30T08:13:13.497Z,4.30
2018-06-30T08:14:20.628Z,4.03
2018-06-30T08:16:28.121Z,4.00
2018-06-30T08:17:34.526Z,3.60
2018-06-30T08:18:41.700Z,4.23
2018-06-30T08:19:48.288Z,4.53
2018-06-30T08:20:54.604Z,4.33
2018-06-30T08:22:03.667Z,4.40
2018-06-30T08:23:09.647Z,3.70
2018-06-30T08:24:15.748Z,4.93
2018-06-30T08:25:21.982Z,4.30
2018-06-30T08:26:28.235Z,4.30
2018-06-30T08:27:34.748Z,4.23
2018-06-30T08:28:40.763Z,4.47
2018-06-30T08:29:49.616Z,4.57
2018-06-30T08:30:55.621Z,3.90
2018-06-30T08:32:02.115Z,3.70
2018-06-30T08:33:08.282Z,3.47
2018-06-30T08:34:14.325Z,4.20
2018-06-30T08:35:22.895Z,3.60
2018-06-30T08:36:29.911Z,4.20
2018-06-30T08:37:35.917Z,4.07
2018-06-30T08:38:43.741Z,3.77
2018-06-30T08:39:49.796Z,3.80
2018-06-30T08:40:56.036Z,4.10
2018-06-30T08:42:02.513Z,4.00
2018-06-30T08:43:09.802Z,4.17
2018-06-30T08:44:18.740Z,4.53
2018-06-30T08:45:25.245Z,4.30
2018-06-30T08:46:31.310Z,4.27
2018-06-30T08:47:39.531Z,3.87
2018-06-30T08:48:47.968Z,3.77
2018-06-30T08:49:54.179Z,3.70
2018-06-30T08:51:00.276Z,4.10
2018-06-30T08:52:06.488Z,3.20
2018-06-30T08:53:16.497Z,3.97
2018-06-30T08:54:24.040Z,3.77
2018-06-30T08:55:31.701Z,3.53
2018-06-30T08:56:38.489Z,4.07
2018-06-30T08:57:45.171Z,3.87
2018-06-30T08:58:51.195Z,3.37
2018-06-30T08:59:57.386Z,3.87
2018-06-30T09:01:04.123Z,3.83
2018-06-30T09:02:10.793Z,3.33
2018-06-30T09:03:19.183Z,3.80
2018-06-30T09:04:26.212Z,3.70
2018-06-30T09:05:36.412Z,3.60
2018-06-30T09:06:44.443Z,4.00
2018-06-30T09:07:53.091Z,3.20
2018-06-30T09:09:09.004Z,3.67
2018-06-30T09:10:31.008Z,3.40
2018-06-30T09:11:41.071Z,3.27
2018-06-30T09:12:47.350Z,3.47
2018-06-30T09:13:54.885Z,3.70
2018-06-30T09:15:00.950Z,3.33
2018-06-30T09:16:08.983Z,3.37
2018-06-30T09:17:15.250Z,3.33
2018-06-30T09:18:24.809Z,3.33
2018-06-30T09:19:32.855Z,2.97
2018-06-30T09:20:39.938Z,3.50
2018-06-30T09:21:46.427Z,3.40
2018-06-30T09:22:54.198Z,3.30
2018-06-30T09:24:03.875Z,3.20
2018-06-30T09:25:10.201Z,3.00
2018-06-30T09:26:17.220Z,2.93
2018-06-30T09:27:24.160Z,3.30
2018-06-30T09:28:34.972Z,3.50
2018-06-30T09:29:41.138Z,3.57
2018-06-30T09:30:49.399Z,2.73
2018-06-30T09:31:55.447Z,3.20
2018-06-30T09:33:03.514Z,3.00
2018-06-30T09:34:09.944Z,3.23
2018-06-30T09:35:16.103Z,3.33
2018-06-30T09:36:25.888Z,3.30
2018-06-30T09:37:35.977Z,3.27
2018-06-30T09:38:42.322Z,3.20
2018-06-30T09:39:48.633Z,2.87
2018-06-30T09:40:54.685Z,2.80
2018-06-30T09:42:01.655Z,2.80
2018-06-30T09:43:08.600Z,3.10
2018-06-30T09:44:15.522Z,3.23
2018-06-30T09:45:21.575Z,3.60
2018-06-30T09:46:28.066Z,2.90
2018-06-30T09:47:34.215Z,3.13
2018-06-30T09:48:41.829Z,2.87
2018-06-30T09:49:52.869Z,3.20
2018-06-30T09:50:59.024Z,2.83
2018-06-30T09:52:06.074Z,3.00
2018-06-30T09:53:13.133Z,2.70
2018-06-30T09:54:19.542Z,2.80
2018-06-30T09:55:28.457Z,3.00
2018-06-30T09:56:36.247Z,2.67
2018-06-30T09:57:45.400Z,2.87
2018-06-30T09:58:51.540Z,2.70
2018-06-30T10:00:00.392Z,2.40
2018-06-30T10:01:09.065Z,2.70
2018-06-30T10:02:16.174Z,2.67
2018-06-30T10:03:25.463Z,2.53
2018-06-30T10:04:36.480Z,2.90
2018-06-30T10:05:46.131Z,2.40
2018-06-30T10:06:54.347Z,2.77
2018-06-30T10:08:14.286Z,2.67
2018-06-30T10:09:22.162Z,2.93
2018-06-30T10:10:30.366Z,2.30
2018-06-30T10:11:36.918Z,2.50
2018-06-30T10:12:43.200Z,2.93
2018-06-30T10:13:49.862Z,2.70
2018-06-30T10:15:00.508Z,2.80
2018-06-30T10:16:06.952Z,2.30
2018-06-30T10:17:13.348Z,2.73
2018-06-30T10:18:20.728Z,3.23
2018-06-30T10:19:29.272Z,2.77
2018-06-30T10:20:35.634Z,2.70
2018-06-30T10:21:41.704Z,2.97
2018-06-30T10:22:48.918Z,3.37
2018-06-30T10:23:57.082Z,3.43
2018-06-30T10:25:05.400Z,2.80
2018-06-30T10:26:12.660Z,2.80
2018-06-30T10:27:19.151Z,3.00
2018-06-30T10:28:27.068Z,3.07
2018-06-30T10:29:35.283Z,2.70
2018-06-30T10:30:44.226Z,2.50
2018-06-30T10:31:52.693Z,2.50
2018-06-30T10:33:02.713Z,2.87
2018-06-30T10:34:08.879Z,3.13
2018-06-30T10:35:15.446Z,2.70
2018-06-30T10:36:22.172Z,3.07
2018-06-30T10:37:31.758Z,3.50
2018-06-30T10:38:39.485Z,2.90
2018-06-30T10:39:47.250Z,2.70
2018-06-30T10:40:56.076Z,2.70
2018-06-30T10:42:10.747Z,2.70
2018-06-30T10:43:16.649Z,2.60
2018-06-30T10:44:22.877Z,2.90
2018-06-30T10:45:32.339Z,2.80
2018-06-30T10:46:38.750Z,3.10
2018-06-30T10:47:47.089Z,3.07
2018-06-30T10:48:54.944Z,2.80
2018-06-30T10:50:18.662Z,2.77
2018-06-30T10:51:33.767Z,3.10
2018-06-30T10:54:58.041Z,3.20
2018-06-30T10:56:05.234Z,3.00
2018-06-30T10:57:12.021Z,3.60
2018-06-30T10:58:18.251Z,3.30
2018-06-30T10:59:24.451Z,3.67
2018-06-30T11:00:32.011Z,2.90
2018-06-30T11:01:38.137Z,3.07
2018-06-30T11:02:44.463Z,3.00
2018-06-30T11:03:50.659Z,2.90
2018-06-30T11:04:58.171Z,3.13
2018-06-30T11:06:06.947Z,3.77
2018-06-30T11:07:17.568Z,3.20
2018-06-30T11:08:25.662Z,4.60
2018-06-30T11:09:33.497Z,4.10
2018-06-30T11:10:42.383Z,3.07
2018-06-30T11:12:02.143Z,3.20
2018-06-30T11:13:09.012Z,2.90
2018-06-30T11:14:15.273Z,3.33
2018-06-30T11:15:21.564Z,3.20
2018-06-30T11:16:27.819Z,3.03
2018-06-30T11:17:34.462Z,3.37
2018-06-30T11:18:40.750Z,3.20
2018-06-30T11:19:48.260Z,3.40
2018-06-30T11:20:55.427Z,3.23
2018-06-30T11:22:01.471Z,3.27
2018-06-30T11:23:07.796Z,4.07
2018-06-30T11:24:18.975Z,3.40
2018-06-30T11:25:25.295Z,3.50
2018-06-30T11:26:31.847Z,3.40
2018-06-30T11:27:46.143Z,3.70
2018-06-30T11:29:01.854Z,3.47
2018-06-30T11:30:08.041Z,3.93
2018-06-30T11:31:31.352Z,3.17
2018-06-30T11:32:45.296Z,4.20
2018-06-30T11:33:56.729Z,3.50
2018-06-30T11:35:09.024Z,3.57
2018-06-30T11:36:20.544Z,3.83
2018-06-30T11:37:26.845Z,3.97
2018-06-30T11:38:36.828Z,3.50
2018-06-30T11:39:43.033Z,3.43
2018-06-30T11:40:50.632Z,3.80
2018-06-30T11:41:56.773Z,3.90
2018-06-30T11:43:02.925Z,3.60
2018-06-30T11:44:11.719Z,3.83
2018-06-30T11:45:19.185Z,3.87
2018-06-30T11:46:25.705Z,3.63
2018-06-30T11:47:32.969Z,3.60
2018-06-30T11:48:41.866Z,3.87
2018-06-30T11:49:48.083Z,3.77
2018-06-30T11:50:57.398Z,3.70
2018-06-30T11:52:03.674Z,3.10
2018-06-30T11:53:19.936Z,3.77
2018-06-30T11:54:28.029Z,3.90
2018-06-30T11:55:37.130Z,3.90
2018-06-30T11:56:43.355Z,3.93
2018-06-30T11:57:50.781Z,3.80
2018-06-30T11:59:01.616Z,4.10
2018-06-30T12:00:11.063Z,3.90
2018-06-30T12:01:18.201Z,3.70
2018-06-30T12:02:25.674Z,4.27
2018-06-30T12:03:33.392Z,3.70
2018-06-30T12:04:41.379Z,3.90
2018-06-30T12:05:48.978Z,3.40
2018-06-30T12:06:57.555Z,3.40
2018-06-30T12:08:03.611Z,3.30
2018-06-30T12:09:12.178Z,3.53
2018-06-30T12:10:19.334Z,3.97
2018-06-30T12:11:26.872Z,3.53
2018-06-30T12:12:34.761Z,3.57
2018-06-30T12:13:41.432Z,3.13
2018-06-30T12:14:48.727Z,4.10
2018-06-30T12:15:58.141Z,4.30
2018-06-30T12:17:08.450Z,3.90
2018-06-30T12:18:14.541Z,3.73
2018-06-30T12:19:20.925Z,3.13
2018-06-30T12:20:31.455Z,3.80
2018-06-30T12:21:41.251Z,3.60
2018-06-30T12:22:47.395Z,3.60
2018-06-30T12:23:55.645Z,4.00
2018-06-30T12:25:02.581Z,3.97
2018-06-30T12:26:09.342Z,4.13
2018-06-30T12:27:15.848Z,3.50
2018-06-30T12:28:22.332Z,4.10
2018-06-30T12:29:31.324Z,3.73
2018-06-30T12:30:40.043Z,4.30
2018-06-30T12:31:48.252Z,4.17
2018-06-30T12:32:54.744Z,3.80
2018-06-30T12:34:00.888Z,4.37
2018-06-30T12:35:11.080Z,3.73
2018-06-30T12:36:19.471Z,4.03
2018-06-30T12:37:29.039Z,3.50
2018-06-30T12:40:18.986Z,3.50
2018-06-30T12:41:25.653Z,4.10
2018-06-30T12:42:33.430Z,4.00
2018-06-30T12:43:41.492Z,3.87
2018-06-30T12:44:48.419Z,3.60
2018-06-30T12:45:55.045Z,3.77
2018-06-30T12:47:02.273Z,3.77
2018-06-30T12:48:08.501Z,3.80
2018-06-30T12:49:18.195Z,4.23
2018-06-30T12:50:24.503Z,3.90
2018-06-30T12:51:34.829Z,4.00
2018-06-30T12:52:42.593Z,3.73
2018-06-30T12:53:48.621Z,4.30
2018-06-30T12:54:56.470Z,4.20
2018-06-30T12:56:03.271Z,3.60
2018-06-30T12:57:09.861Z,4.00
2018-06-30T12:58:17.359Z,4.20
2018-06-30T12:59:24.619Z,4.30
2018-06-30T13:00:36.652Z,4.03
2018-06-30T13:01:48.897Z,4.00
2018-06-30T13:02:55.460Z,4.03
2018-06-30T13:04:02.214Z,3.97
2018-06-30T13:05:08.564Z,3.80
2018-06-30T13:06:15.342Z,4.40
2018-06-30T13:07:21.293Z,4.00
2018-06-30T13:08:27.304Z,3.83
2018-06-30T13:09:37.078Z,4.10
2018-06-30T13:10:44.431Z,4.30
2018-06-30T13:11:50.632Z,4.03
2018-06-30T13:12:58.684Z,3.93
2018-06-30T13:14:08.060Z,4.70
2018-06-30T13:15:14.482Z,3.40
2018-06-30T13:16:22.705Z,4.57
2018-06-30T13:17:29.287Z,4.40
2018-06-30T13:18:35.808Z,4.47
2018-06-30T13:19:42.540Z,4.80
2018-06-30T13:20:49.224Z,3.70
2018-06-30T13:21:55.345Z,4.23
2018-06-30T13:23:01.477Z,4.30
2018-06-30T13:24:09.207Z,4.20
2018-06-30T13:25:15.357Z,4.20
2018-06-30T13:26:21.475Z,3.90
2018-06-30T13:27:29.245Z,3.97
2018-06-30T13:28:35.974Z,4.20
2018-06-30T13:29:42.305Z,4.30
2018-06-30T13:30:48.535Z,4.20
2018-06-30T13:31:56.029Z,4.13
2018-06-30T13:33:02.419Z,3.70
2018-06-30T13:34:09.264Z,4.33
2018-06-30T13:35:16.919Z,4.53
2018-06-30T13:36:23.594Z,5.03
2018-06-30T13:37:32.456Z,4.50
2018-06-30T13:38:40.277Z,4.00
2018-06-30T13:39:46.605Z,4.37
2018-06-30T13:40:52.837Z,4.27
2018-06-30T13:41:59.142Z,4.90
2018-06-30T13:43:05.942Z,4.90
2018-06-30T13:44:13.891Z,4.70
2018-06-30T13:45:20.876Z,4.40
2018-06-30T13:46:27.262Z,4.70
2018-06-30T13:47:33.321Z,4.20
2018-06-30T13:48:41.817Z,5.33
2018-06-30T13:49:47.949Z,4.80
2018-06-30T13:50:59.732Z,5.17
2018-06-30T13:52:06.079Z,4.63
2018-06-30T13:53:13.100Z,4.63
2018-06-30T13:54:23.936Z,4.53
2018-06-30T13:55:31.182Z,3.93
2018-06-30T13:56:41.482Z,4.90
2018-06-30T13:57:47.617Z,4.67
2018-06-30T13:58:54.764Z,4.20
2018-06-30T14:00:02.104Z,4.43
2018-06-30T14:01:08.459Z,5.17
2018-06-30T14:02:15.756Z,4.03
2018-06-30T14:03:24.102Z,4.70
2018-06-30T14:04:43.815Z,4.23
2018-06-30T14:05:50.125Z,5.50
2018-06-30T14:06:56.874Z,4.77
2018-06-30T14:08:02.974Z,4.60
2018-06-30T14:09:11.458Z,5.17
2018-06-30T14:10:17.670Z,4.87
2018-06-30T14:11:23.809Z,4.80
2018-06-30T14:12:29.980Z,5.60
2018-06-30T14:13:38.160Z,4.60
2018-06-30T14:14:44.565Z,5.00
2018-06-30T14:15:50.664Z,4.37
2018-06-30T14:16:56.882Z,5.20
2018-06-30T14:18:03.298Z,5.07
2018-06-30T14:19:09.513Z,4.83
2018-06-30T14:20:18.625Z,5.13
2018-06-30T14:21:25.647Z,4.80
2018-06-30T14:22:32.699Z,4.40
2018-06-30T14:23:41.994Z,4.63
2018-06-30T14:24:52.310Z,4.57
2018-06-30T14:25:59.044Z,4.70
2018-06-30T14:27:10.585Z,4.60
2018-06-30T14:28:19.752Z,4.73
2018-06-30T14:29:26.025Z,5.00
2018-06-30T14:30:31.978Z,4.93
2018-06-30T14:31:42.539Z,4.73
2018-06-30T14:32:50.758Z,4.50
2018-06-30T14:33:56.980Z,4.47
2018-06-30T14:35:03.051Z,4.50
2018-06-30T14:36:09.279Z,5.00
2018-06-30T14:37:16.513Z,5.27
2018-06-30T14:38:22.680Z,5.10
2018-06-30T14:39:29.557Z,4.77
2018-06-30T14:40:35.804Z,4.90
2018-06-30T14:41:41.937Z,4.70
2018-06-30T14:42:49.687Z,4.43
2018-06-30T14:43:58.569Z,4.77
2018-06-30T14:45:04.831Z,5.00
2018-06-30T14:46:10.669Z,4.80
2018-06-30T14:47:18.664Z,5.03
2018-06-30T14:48:31.629Z,4.70
2018-06-30T14:49:39.322Z,5.00
2018-06-30T14:50:48.407Z,4.87
2018-06-30T14:51:57.974Z,4.87
2018-06-30T14:53:04.117Z,4.90
2018-06-30T14:54:10.423Z,5.00
2018-06-30T14:55:16.561Z,4.20
2018-06-30T14:56:22.950Z,4.87
2018-06-30T14:57:29.128Z,4.47
2018-06-30T14:58:38.505Z,4.70
2018-06-30T14:59:45.582Z,4.80
2018-06-30T15:00:52.578Z,4.73
2018-06-30T15:01:58.653Z,5.10
2018-06-30T15:03:08.027Z,4.83
2018-06-30T15:04:14.212Z,5.33
2018-06-30T15:05:20.999Z,4.77
2018-06-30T15:06:27.215Z,4.53
2018-06-30T15:07:33.475Z,5.10
2018-06-30T15:08:39.532Z,4.77
2018-06-30T15:09:45.839Z,5.00
2018-06-30T15:10:53.474Z,4.80
2018-06-30T15:11:59.731Z,4.97
2018-06-30T15:13:06.298Z,5.67
2018-06-30T15:14:16.568Z,4.53
2018-06-30T15:15:22.926Z,4.57
2018-06-30T15:16:30.061Z,4.70
2018-06-30T15:17:36.433Z,5.07
2018-06-30T15:18:42.491Z,4.80
2018-06-30T15:19:48.549Z,4.47
2018-06-30T15:20:55.540Z,4.30
2018-06-30T15:22:01.933Z,4.60
2018-06-30T15:23:09.082Z,5.27
2018-06-30T15:24:16.073Z,4.50
2018-06-30T15:25:22.169Z,4.60
2018-06-30T15:26:28.371Z,4.50
2018-06-30T15:27:34.497Z,5.00
2018-06-30T15:28:42.225Z,5.10
2018-06-30T15:29:50.876Z,4.70
2018-06-30T15:30:57.010Z,4.87
2018-06-30T15:32:03.023Z,4.83
2018-06-30T15:33:09.220Z,5.17
2018-06-30T15:34:15.401Z,4.67
2018-06-30T15:35:21.534Z,5.23
2018-06-30T15:36:28.319Z,4.77
2018-06-30T15:37:34.651Z,5.10
2018-06-30T15:38:40.855Z,5.40
2018-06-30T15:39:47.145Z,5.17
2018-06-30T15:40:54.679Z,5.23
2018-06-30T15:42:03.362Z,5.00
2018-06-30T15:43:09.666Z,5.00
2018-06-30T15:44:17.783Z,5.50
2018-06-30T15:45:23.951Z,4.63
2018-06-30T15:46:30.110Z,5.10
2018-06-30T15:47:36.143Z,5.40
2018-06-30T15:48:42.457Z,5.93
2018-06-30T15:49:48.503Z,5.67
2018-06-30T15:50:56.491Z,5.50
2018-06-30T15:52:03.873Z,5.70
2018-06-30T15:53:09.979Z,5.77
2018-06-30T15:54:17.080Z,5.50
2018-06-30T15:55:26.679Z,5.63
2018-06-30T15:56:32.833Z,4.93
2018-06-30T15:57:39.617Z,6.10
2018-06-30T15:58:45.721Z,5.60
2018-06-30T15:59:51.931Z,5.33
2018-06-30T16:01:01.172Z,5.10
2018-06-30T16:02:07.329Z,6.27
2018-06-30T16:03:13.361Z,5.90
2018-06-30T16:04:19.449Z,5.83
2018-06-30T16:05:27.752Z,5.83
2018-06-30T16:06:33.999Z,5.90
2018-06-30T16:07:41.392Z,5.80
2018-06-30T16:08:47.484Z,5.50
2018-06-30T16:09:54.735Z,5.70
2018-06-30T16:11:02.864Z,6.67
2018-06-30T16:12:09.660Z,5.80
2018-06-30T16:13:17.773Z,5.60
2018-06-30T16:14:24.344Z,5.67
2018-06-30T16:15:30.462Z,5.73
2018-06-30T16:16:39.393Z,6.07
2018-06-30T16:17:45.621Z,5.40
2018-06-30T16:18:52.680Z,5.50
2018-06-30T16:19:59.147Z,6.00
2018-06-30T16:21:05.296Z,6.30
2018-06-30T16:22:11.359Z,6.10
2018-06-30T16:23:17.551Z,5.90
2018-06-30T16:24:23.769Z,5.90
2018-06-30T16:25:29.870Z,5.97
2018-06-30T16:26:36.209Z,5.47
2018-06-30T16:27:43.559Z,6.10
2018-06-30T16:28:50.134Z,5.87
2018-06-30T16:29:56.207Z,5.67
2018-06-30T16:31:03.089Z,6.57
2018-06-30T16:32:09.394Z,5.40
2018-06-30T16:33:15.589Z,5.80
2018-06-30T16:34:23.510Z,5.10
2018-06-30T16:35:30.832Z,5.53
2018-06-30T16:36:36.993Z,5.60
2018-06-30T16:37:43.131Z,5.13
2018-06-30T16:38:49.306Z,5.80
2018-06-30T16:39:56.630Z,5.70
2018-06-30T16:41:02.946Z,5.60
2018-06-30T16:42:09.459Z,5.10
2018-06-30T16:43:22.150Z,5.50
2018-06-30T16:44:32.643Z,5.40
2018-06-30T16:45:39.480Z,5.80
2018-06-30T16:46:47.361Z,5.37
2018-06-30T16:47:54.385Z,4.97
2018-06-30T16:49:00.694Z,5.67
2018-06-30T16:50:07.033Z,5.20
2018-06-30T16:51:15.920Z,5.20
2018-06-30T16:52:23.881Z,5.10
2018-06-30T16:53:32.099Z,5.73
2018-06-30T16:54:39.422Z,5.67
2018-06-30T16:55:46.044Z,5.50
2018-06-30T16:56:52.410Z,5.30
2018-06-30T16:57:58.801Z,5.80
2018-06-30T16:59:05.048Z,5.00
2018-06-30T17:00:12.103Z,5.53
2018-06-30T17:01:19.186Z,5.30
2018-06-30T17:02:25.465Z,5.10
2018-06-30T17:03:31.850Z,4.70
2018-06-30T17:04:38.127Z,4.90
2018-06-30T17:05:44.140Z,5.50
2018-06-30T17:06:50.575Z,5.10
2018-06-30T17:07:56.775Z,5.63
2018-06-30T17:09:04.095Z,5.53
2018-06-30T17:10:10.676Z,5.60
2018-06-30T17:11:16.868Z,5.53
2018-06-30T17:12:24.833Z,5.70
2018-06-30T17:13:34.294Z,5.23
2018-06-30T17:14:40.645Z,5.00
2018-06-30T17:15:47.189Z,4.60
2018-06-30T17:16:53.604Z,5.50
2018-06-30T17:17:59.836Z,4.87
2018-06-30T17:19:06.780Z,5.70
2018-06-30T17:20:13.978Z,5.47
2018-06-30T17:21:21.383Z,5.10
2018-06-30T17:22:27.673Z,4.60
2018-06-30T17:23:34.875Z,4.93
2018-06-30T17:24:41.947Z,4.80
2018-06-30T17:25:48.398Z,5.20
2018-06-30T17:26:58.710Z,4.30
2018-06-30T17:28:04.970Z,4.43
2018-06-30T17:29:11.283Z,5.30
2018-06-30T17:30:18.154Z,4.50
2018-06-30T17:31:24.726Z,4.80
2018-06-30T17:32:31.125Z,4.33
2018-06-30T17:33:39.224Z,4.93
2018-06-30T17:34:45.407Z,4.70
2018-06-30T17:35:52.280Z,4.20
2018-06-30T17:37:01.322Z,4.67
2018-06-30T17:38:07.897Z,4.43
2018-06-30T17:39:15.404Z,4.50
2018-06-30T17:40:24.202Z,4.63
2018-06-30T17:41:38.005Z,4.53
2018-06-30T17:42:44.332Z,4.87
2018-06-30T17:43:50.506Z,4.57
2018-06-30T17:44:59.624Z,5.03
2018-06-30T17:46:07.699Z,4.90
2018-06-30T17:47:14.017Z,4.87
2018-06-30T17:48:20.855Z,4.53
2018-06-30T17:49:27.293Z,4.50
2018-06-30T17:50:38.691Z,4.63
2018-06-30T17:51:44.829Z,4.47
2018-06-30T17:52:53.311Z,4.60
2018-06-30T17:54:00.185Z,4.30
2018-06-30T17:55:07.019Z,4.80
2018-06-30T17:56:14.490Z,4.30
2018-06-30T17:57:22.662Z,4.43
2018-06-30T17:58:30.118Z,4.47
2018-06-30T17:59:37.677Z,4.33
2018-06-30T18:00:44.203Z,5.10
2018-06-30T18:01:51.200Z,4.07
2018-06-30T18:02:58.368Z,4.10
2018-06-30T18:04:06.668Z,4.50
2018-06-30T18:05:13.365Z,4.10
2018-06-30T18:06:21.306Z,4.50
2018-06-30T18:07:27.585Z,4.43
2018-06-30T18:08:33.857Z,4.47
2018-06-30T18:09:40.355Z,4.57
2018-06-30T18:10:46.533Z,5.10
2018-06-30T18:11:53.306Z,4.07
2018-06-30T18:13:02.870Z,4.13
2018-06-30T18:14:09.792Z,4.40
2018-06-30T18:15:16.063Z,3.83
2018-06-30T18:16:23.724Z,4.33
2018-06-30T18:17:29.951Z,4.30
2018-06-30T18:18:38.620Z,4.00
2018-06-30T18:19:46.589Z,3.70
2018-06-30T18:20:53.578Z,3.93
2018-06-30T18:22:00.542Z,4.33
2018-06-30T18:23:07.788Z,4.20
2018-06-30T18:24:15.421Z,4.00
2018-06-30T18:25:22.269Z,4.67
2018-06-30T18:26:28.595Z,4.07
2018-06-30T18:27:36.570Z,4.53
2018-06-30T18:28:42.713Z,5.17
2018-06-30T18:29:49.934Z,4.90
2018-06-30T18:30:56.037Z,4.87
2018-06-30T18:32:02.254Z,4.40
2018-06-30T18:33:08.457Z,4.07
2018-06-30T18:34:14.669Z,4.07
2018-06-30T18:35:21.924Z,4.00
2018-06-30T18:36:28.450Z,4.30
2018-06-30T18:37:34.713Z,4.53
2018-06-30T18:38:42.701Z,4.20
2018-06-30T18:39:48.713Z,3.50
2018-06-30T18:40:55.095Z,4.30
2018-06-30T18:42:01.873Z,3.83
2018-06-30T18:43:08.285Z,4.30
2018-06-30T18:44:15.839Z,4.00
2018-06-30T18:45:22.167Z,3.80
2018-06-30T18:46:28.387Z,4.50
2018-06-30T18:47:34.680Z,3.70
2018-06-30T18:48:41.929Z,3.30
2018-06-30T18:49:48.013Z,3.20
2018-06-30T18:50:54.069Z,3.60
2018-06-30T18:52:00.175Z,3.43
2018-06-30T18:53:06.315Z,3.83
2018-06-30T18:54:12.453Z,3.97
2018-06-30T18:55:18.507Z,4.83
2018-06-30T18:56:24.654Z,3.90
2018-06-30T18:57:30.743Z,3.90
2018-06-30T18:58:36.727Z,3.77
2018-06-30T18:59:42.723Z,5.00
2018-06-30T19:00:48.630Z,3.93
2018-06-30T19:01:54.661Z,3.87
2018-06-30T19:03:00.741Z,4.07
2018-06-30T19:04:07.677Z,3.70
2018-06-30T19:05:13.751Z,4.30
2018-06-30T19:06:19.733Z,3.27
2018-06-30T19:07:26.093Z,4.57
2018-06-30T19:08:32.138Z,4.00
2018-06-30T19:09:40.834Z,5.00
2018-06-30T19:10:47.118Z,4.37
2018-06-30T19:11:54.253Z,3.17
2018-06-30T19:13:00.687Z,4.20
2018-06-30T19:14:07.748Z,5.87
2018-06-30T19:15:14.224Z,5.07
2018-06-30T19:16:20.819Z,4.00
2018-06-30T19:17:28.452Z,3.67
2018-06-30T19:18:34.785Z,3.60
2018-06-30T19:19:40.967Z,3.63
2018-06-30T19:20:47.420Z,2.83
2018-06-30T19:21:53.440Z,4.60
2018-06-30T19:22:59.435Z,2.53
2018-06-30T19:24:05.677Z,3.37
2018-06-30T19:25:11.931Z,3.20
2018-06-30T19:26:17.896Z,3.00
2018-06-30T19:27:25.096Z,3.30
2018-06-30T19:28:31.188Z,4.13
2018-06-30T19:29:37.531Z,4.33
2018-06-30T19:30:43.867Z,3.77
2018-06-30T19:31:49.997Z,3.13
2018-06-30T19:32:56.833Z,3.97
2018-06-30T19:34:03.051Z,3.47
2018-06-30T19:35:09.021Z,3.40
2018-06-30T19:36:14.985Z,3.80
2018-06-30T19:37:21.005Z,4.00
2018-06-30T19:38:27.030Z,3.40
2018-06-30T19:39:33.041Z,2.90
2018-06-30T19:40:39.127Z,3.20
2018-06-30T19:41:45.179Z,2.80
2018-06-30T19:42:51.603Z,3.70
2018-06-30T19:43:57.795Z,3.00
2018-06-30T19:45:03.973Z,3.27
2018-06-30T19:46:09.893Z,3.07
2018-06-30T19:47:16.018Z,3.13
2018-06-30T19:48:22.231Z,4.00
2018-06-30T19:49:28.377Z,3.77
2018-06-30T19:50:34.763Z,3.53
2018-06-30T19:51:41.215Z,3.47
2018-06-30T19:52:47.332Z,3.13
2018-06-30T19:53:54.299Z,3.47
2018-06-30T19:55:00.455Z,3.27
2018-06-30T19:56:08.268Z,3.10
2018-06-30T19:57:14.519Z,3.10
2018-06-30T19:58:21.175Z,3.30
2018-06-30T19:59:27.165Z,3.70
2018-06-30T20:00:33.129Z,3.43
2018-06-30T20:01:39.789Z,3.57
2018-06-30T20:02:45.934Z,3.20
2018-06-30T20:03:52.253Z,3.50
2018-06-30T20:05:01.368Z,4.00
2018-06-30T20:06:08.392Z,3.77